Stewkley, United Kingdom
Current Conditions -  °F | °C
As of 10:20 AM on Monday 22 Dec 2014 (Local Time) from EGTC Reporting Station
Broken Clouds Broken Clouds  
Wind Chill: 54°   Ceiling: 1700
Heat Index: 54°   Visibility: 6mi
Dew Point: 48°   Wind: 21mph
Humidity: 82%   Direction: 250°WSW
Pressure: 29.97"   Gusts: 35mph
Location:  51.93°N, 0.76°W
Report Text: EGTC 221020Z 25018G30KT 9999 BKN017 12/09 Q1015
Loading
Personal Weather Stations






























Interactive Weather Map New forecast layout! Learn more

10-Day Weather Forecast

Advertisements
Track Severe Weather on mobile